Fort Walton Beach, FL (32547)

2:33 PM CST on December 17, 2014 (GMT -0600)
Cinco Bayou - Pocahontas Dr. | Change Station
CLOSE
Current Station
Personal Weather Station
Location: Fort Walton Beach, FL
Elevation: 16 ft
Nearby Weather Stations

Elev 16 ft 30.43 °N, 86.62 °W | Updated 11 seconds ago

Partly Cloudy
Partly Cloudy
59.2 °F
Feels Like 59.2 °F
N
0.0
Wind Variable Wind from WSW
Gusts 3.0 mph

Today
High -- | Low -- °F
--% Chance of Precip.
Yesterday
High -- | Low -- °F
Precip. -- in
6:37 AM 4:48 PM
Waning Crescent, 20% visible
Pressure 30.16 in
Visibility 10.0 miles
Clouds Clear
Dew Point 49 °F
Humidity 68%
Rainfall 0.00 in
Snow Depth Not available.
UV 3 out of 12
Pollen 3.20 out of 12
Air Quality Not available.
Flu Activity Not available.
METAR KHRT 171958Z AUTO 28004KT 10SM CLR 15/03 A3015 RMK AO2 SLP212 T01510034 $

More Conditions Fewer Conditions

Pressure 30.16 in
Visibility 10.0 miles
Clouds Clear
Dew Point 49 °F
Humidity 68%
Rainfall 0.00 in
Snow Depth Not available.
UV 3 out of 12
Pollen 3.20 out of 12
Air Quality Not available.
Flu Activity Not available.
METAR KHRT 171958Z AUTO 28004KT 10SM CLR 15/03 A3015 RMK AO2 SLP212 T01510034 $

More Conditions Fewer Conditions

10-Day Weather Forecast

Almanac

Astronomy

Dec. 17, 2014 Rise Set
Actual Time
Civil Twilight
Nautical Twilight
Astronomical Twilight
Moon
Length of Visible Light
Length of Day
Tomorrow will be .
, % of the Moon is Illuminated

Today's Extremes

State Highs State Lows

Community

WunderPhotos

Upload Photos

1,778,803 photos uploaded!

WunderBlogs® & News

Nearby

Air Quality

  Air Quality AQ Index Pollutant
Not available.

Snow Depth

Station Depth Elevation

Earthquake Activity

City Distance Mag. Time & Date
Minimum magnitude displayed is 2.5.

Coastal Water Temperatures

Place Temperature

Nearby Weather Stations